Time;durP1;ratioP1;P1;durP2;ratioP2;P2;SDS_P1;SDS_P2;PMS_P1;PMS_P2;Temp;Humidity;BMP_temperature;BMP_pressure;BME280_temperature;BME280_humidity;BME280_pressure;Samples;Min_cycle;Max_cycle;Signal;HPM_P1;HPM_P2
2022/07/31 00:00:06;;;;;;;79.85;75.85;;;;;;;28.09;34.88;101614.19;4883066;29;20041;-67
2022/07/31 00:02:32;;;;;;;80.28;76.38;;;;;;;28.05;34.93;101617.66;4882907;29;20065;-67
2022/07/31 00:04:57;;;;;;;76.07;71.65;;;;;;;28.03;35.10;101613.59;4883015;29;20433;-67
2022/07/31 00:07:22;;;;;;;77.72;73.93;;;;;;;28.00;35.48;101612.31;4882912;29;20032;-67
2022/07/31 00:09:48;;;;;;;76.93;73.32;;;;;;;27.99;35.44;101609.84;4883037;29;20116;-67
2022/07/31 00:12:13;;;;;;;77.50;73.43;;;;;;;27.96;35.23;101610.53;4883113;29;20057;-67
2022/07/31 00:14:39;;;;;;;78.97;74.80;;;;;;;27.94;35.42;101613.66;4882979;29;20065;-67
2022/07/31 00:17:04;;;;;;;77.50;73.45;;;;;;;27.91;35.47;101617.09;4882974;29;20423;-67
2022/07/31 00:19:30;;;;;;;78.22;74.13;;;;;;;27.89;35.59;101622.19;4882694;29;20382;-67
2022/07/31 00:21:56;;;;;;;74.95;71.15;;;;;;;27.87;35.56;101634.78;4882934;29;20040;-66
2022/07/31 00:24:21;;;;;;;76.90;73.30;;;;;;;27.83;35.47;101641.00;4882615;29;20120;-67
2022/07/31 00:26:46;;;;;;;75.60;71.82;;;;;;;27.82;35.70;101644.13;4882991;29;20072;-67
2022/07/31 00:29:12;;;;;;;80.65;76.28;;;;;;;27.80;35.60;101638.91;4882554;29;20490;-67
2022/07/31 00:31:37;;;;;;;79.25;75.45;;;;;;;27.77;35.79;101630.41;4882726;29;20465;-67
2022/07/31 00:34:03;;;;;;;77.90;73.93;;;;;;;27.75;35.68;101622.44;4882751;29;20041;-68
2022/07/31 00:36:28;;;;;;;76.72;72.47;;;;;;;27.72;36.17;101630.63;4882235;29;20085;-67
2022/07/31 00:38:56;;;;;;;78.00;73.75;;;;;;;27.70;35.92;101622.66;4882374;29;20064;-67
2022/07/31 00:41:21;;;;;;;78.40;74.22;;;;;;;27.68;36.00;101616.63;4882637;29;20518;-68
2022/07/31 00:43:47;;;;;;;74.50;70.38;;;;;;;27.66;35.74;101615.31;4882559;29;20037;-67
2022/07/31 00:46:12;;;;;;;77.43;73.28;;;;;;;27.63;35.75;101606.53;4882112;29;20040;-67
2022/07/31 00:48:38;;;;;;;76.05;71.97;;;;;;;27.61;35.71;101610.78;4897249;29;20127;-67
2022/07/31 00:51:04;;;;;;;80.45;75.97;;;;;;;27.58;36.24;101598.41;4882391;29;20089;-67
2022/07/31 00:53:29;;;;;;;80.53;76.57;;;;;;;27.57;36.33;101604.31;4882655;29;20096;-67
2022/07/31 00:55:56;;;;;;;79.43;75.45;;;;;;;27.54;36.39;101605.78;4882046;29;20037;-67
2022/07/31 00:58:21;;;;;;;76.05;71.95;;;;;;;27.53;35.81;101604.16;4881976;29;20533;-66
2022/07/31 01:00:47;;;;;;;79.65;75.60;;;;;;;27.50;35.97;101604.81;4882179;29;20037;-67
2022/07/31 01:03:13;;;;;;;79.10;75.20;;;;;;;27.48;36.06;101607.13;4881980;29;20390;-66
2022/07/31 01:05:38;;;;;;;78.78;74.78;;;;;;;27.46;35.99;101609.41;4881771;29;20088;-67
2022/07/31 01:08:04;;;;;;;72.60;69.00;;;;;;;27.44;36.25;101594.25;4882116;29;20120;-67
2022/07/31 01:10:51;;;;;;;75.38;71.68;;;;;;;27.41;36.25;101599.31;4881822;29;20082;-66
2022/07/31 01:13:26;;;;;;;73.15;69.55;;;;;;;27.38;36.40;101601.97;4882319;29;20041;-67
2022/07/31 01:15:54;;;;;;;73.22;69.57;;;;;;;27.35;36.48;101603.44;4881388;29;20025;-67
2022/07/31 01:18:21;;;;;;;76.03;72.17;;;;;;;27.34;36.50;101601.00;4881639;29;20073;-67
2022/07/31 01:20:48;;;;;;;73.63;69.97;;;;;;;27.32;36.65;101604.13;4896200;29;20033;-67
2022/07/31 01:23:38;;;;;;;77.82;73.88;;;;;;;27.29;36.51;101596.50;4881618;29;20077;-67
2022/07/31 01:26:12;;;;;;;72.80;68.78;;;;;;;27.27;36.33;101606.28;4881539;29;20040;-67
2022/07/31 01:28:38;;;;;;;72.63;68.80;;;;;;;27.24;36.29;101596.69;4881657;29;20040;-67
2022/07/31 01:31:10;;;;;;;70.32;66.93;;;;;;;27.22;36.29;101603.72;4881407;29;20029;-67
2022/07/31 01:33:47;;;;;;;69.82;66.10;;;;;;;27.19;36.06;101605.19;4881105;29;20033;-67
2022/07/31 01:36:18;;;;;;;72.78;68.50;;;;;;;27.18;36.28;101603.56;4881639;29;20043;-67
2022/07/31 01:38:49;;;;;;;73.63;69.85;;;;;;;27.15;36.65;101604.19;4881215;29;20037;-67
2022/07/31 01:41:20;;;;;;;72.47;68.88;;;;;;;27.13;36.39;101598.16;4880265;29;20422;-67
2022/07/31 01:43:48;;;;;;;74.13;70.13;;;;;;;27.11;36.32;101597.69;4881888;29;20036;-67
2022/07/31 01:46:18;;;;;;;69.32;66.03;;;;;;;27.09;36.80;101595.25;4881723;29;20037;-67
2022/07/31 01:48:45;;;;;;;72.97;69.15;;;;;;;27.08;36.63;101595.59;4881302;29;20029;-67
2022/07/31 01:51:12;;;;;;;71.90;67.93;;;;;;;27.05;36.63;101597.06;4881026;29;20053;-67
2022/07/31 01:53:39;;;;;;;69.90;66.55;;;;;;;27.03;36.88;101596.59;4880952;29;20037;-67
2022/07/31 01:56:06;;;;;;;69.70;65.93;;;;;;;27.01;36.96;101586.97;4881045;29;20033;-67
2022/07/31 01:58:35;;;;;;;73.75;70.32;;;;;;;26.98;36.97;101589.25;4879546;29;20037;-67
2022/07/31 02:01:02;;;;;;;71.85;68.03;;;;;;;26.97;36.92;101584.06;4881296;29;20033;-67
2022/07/31 02:03:29;;;;;;;70.65;66.88;;;;;;;26.96;37.17;101587.97;4880864;29;20458;-67
2022/07/31 02:05:56;;;;;;;73.38;69.50;;;;;;;26.93;37.19;101581.13;4880688;29;20057;-66
2022/07/31 02:08:22;;;;;;;72.57;68.63;;;;;;;26.91;37.19;101579.84;4881293;29;20029;-67
2022/07/31 02:10:47;;;;;;;72.78;68.97;;;;;;;26.88;37.00;101588.84;4880713;29;20088;-66
2022/07/31 02:13:14;;;;;;;74.93;71.00;;;;;;;26.86;37.02;101591.97;4880357;29;20130;-66
2022/07/31 02:15:43;;;;;;;75.88;71.30;;;;;;;26.85;37.13;101587.53;4879835;29;20032;-67
2022/07/31 02:18:09;;;;;;;72.65;68.78;;;;;;;26.83;36.97;101591.78;4894578;29;20052;-67
2022/07/31 02:20:37;;;;;;;69.88;65.82;;;;;;;26.82;37.30;101590.97;4881344;29;20084;-66
2022/07/31 02:23:02;;;;;;;69.77;66.43;;;;;;;26.79;37.46;101594.44;4880748;29;20033;-67
2022/07/31 02:25:30;;;;;;;73.50;69.35;;;;;;;26.77;37.58;101583.66;4880483;29;20033;-67
2022/07/31 02:28:00;;;;;;;72.85;69.00;;;;;;;26.76;37.36;101589.53;4880335;29;20177;-67
2022/07/31 02:30:28;;;;;;;68.82;65.15;;;;;;;26.72;37.56;101583.84;4880642;29;20112;-66
2022/07/31 02:32:54;;;;;;;70.28;66.78;;;;;;;26.70;37.04;101577.81;4880342;29;20469;-67
2022/07/31 02:35:21;;;;;;;71.82;68.13;;;;;;;26.69;37.22;101572.63;4880322;29;20037;-67
2022/07/31 02:37:50;;;;;;;73.40;69.60;;;;;;;26.68;37.17;101573.75;4894448;29;20037;-67
2022/07/31 02:40:16;;;;;;;73.82;70.18;;;;;;;26.66;37.47;101571.34;4880225;29;20036;-67
2022/07/31 02:42:42;;;;;;;72.43;68.22;;;;;;;26.63;37.55;101583.06;4880177;29;20033;-67
2022/07/31 02:45:09;;;;;;;71.20;67.70;;;;;;;26.62;37.66;101573.13;4880197;29;20143;-66
2022/07/31 02:47:38;;;;;;;71.32;67.18;;;;;;;26.60;37.44;101564.34;4880677;29;20049;-67
2022/07/31 02:50:03;;;;;;;;;;;;;;;26.58;37.42;101552.75;4880425;29;20025;-67
2022/07/31 02:52:29;;;;;;;69.55;65.75;;;;;;;26.55;37.13;101551.47;4880459;29;20276;-67
2022/07/31 02:54:56;;;;;;;70.47;66.95;;;;;;;26.54;37.72;101557.34;4879970;29;20458;-67
2022/07/31 02:57:22;;;;;;;71.78;67.75;;;;;;;26.52;37.18;101566.00;4879666;29;20029;-67
2022/07/31 02:59:47;;;;;;;73.40;69.47;;;;;;;26.50;37.49;101562.69;4879655;29;20089;-66
2022/07/31 03:02:13;;;;;;;75.68;71.50;;;;;;;26.49;37.74;101568.59;4880120;29;20033;-67
2022/07/31 03:04:38;;;;;;;72.57;68.43;;;;;;;26.47;37.66;101562.56;4880435;29;20172;-68
2022/07/31 03:07:03;;;;;;;71.03;67.03;;;;;;;26.45;37.54;101559.31;4880302;29;20480;-67
2022/07/31 03:09:29;;;;;;;70.40;66.60;;;;;;;26.43;37.73;101558.81;4879734;29;20041;-67
2022/07/31 03:11:55;;;;;;;70.57;66.50;;;;;;;26.42;37.37;101557.19;4879996;29;20401;-67
2022/07/31 03:14:22;;;;;;;70.88;67.10;;;;;;;26.39;37.70;101550.38;4879811;29;20043;-67
2022/07/31 03:16:49;;;;;;;76.07;71.82;;;;;;;26.38;37.99;101553.47;4879349;29;20041;-66
2022/07/31 03:19:15;;;;;;;71.88;67.95;;;;;;;26.36;37.55;101542.72;4879665;29;20068;-66
2022/07/31 03:21:41;;;;;;;72.55;68.55;;;;;;;26.33;37.50;101546.13;4878495;29;20037;-67
2022/07/31 03:24:06;;;;;;;75.90;71.90;;;;;;;26.31;37.87;101545.69;4878656;29;20041;-66
2022/07/31 03:26:32;;;;;;;73.45;69.35;;;;;;;26.30;37.64;101549.56;4879607;29;20475;-67
2022/07/31 03:28:59;;;;;;;74.15;70.15;;;;;;;26.28;37.89;101555.47;4878420;29;20105;-66
2022/07/31 03:31:24;;;;;;;75.03;70.40;;;;;;;26.26;37.69;101549.44;4880126;29;20037;-67
2022/07/31 03:33:49;;;;;;;72.22;68.32;;;;;;;26.24;37.57;101550.91;4879197;29;20040;-67
2022/07/31 03:36:16;;;;;;;70.63;66.90;;;;;;;26.22;37.58;101542.91;4879662;29;20539;-66
2022/07/31 03:38:42;;;;;;;70.80;67.05;;;;;;;26.20;37.82;101542.41;4879469;29;20549;-67
2022/07/31 03:41:07;;;;;;;71.28;67.10;;;;;;;26.19;37.84;101543.56;4879921;29;20033;-66
2022/07/31 03:43:33;;;;;;;70.93;66.68;;;;;;;26.17;37.47;101534.78;4880008;29;20089;-66
2022/07/31 03:46:00;;;;;;;74.22;70.03;;;;;;;26.15;37.76;101539.81;4894423;29;20085;-66
2022/07/31 03:48:27;;;;;;;73.80;69.90;;;;;;;26.13;37.81;101531.03;4893759;29;20029;-67
2022/07/31 03:50:52;;;;;;;71.68;67.45;;;;;;;26.11;37.98;101542.44;4879008;29;20133;-66
2022/07/31 03:53:18;;;;;;;70.97;66.72;;;;;;;26.10;37.71;101531.69;4878287;29;20505;-67
2022/07/31 03:55:44;;;;;;;71.03;67.03;;;;;;;26.07;38.14;101540.66;4879751;29;20474;-66
2022/07/31 03:58:10;;;;;;;72.78;68.93;;;;;;;26.05;37.67;101542.94;4879455;29;20037;-67
2022/07/31 04:00:36;;;;;;;72.47;68.35;;;;;;;26.04;37.90;101547.69;4878043;29;20119;-67
2022/07/31 04:03:10;;;;;;;72.75;68.55;;;;;;;26.02;38.21;101555.50;4894158;29;20403;-67
2022/07/31 04:05:37;;;;;;;75.07;70.93;;;;;;;26.00;38.04;101555.00;4879528;29;20060;-67
2022/07/31 04:08:03;;;;;;;74.45;70.05;;;;;;;25.98;37.80;101551.78;4879535;29;20097;-66
2022/07/31 04:10:29;;;;;;;68.57;64.88;;;;;;;25.97;38.36;101554.84;4878823;29;20037;-66
2022/07/31 04:12:54;;;;;;;74.18;70.15;;;;;;;25.93;38.13;101554.72;4879512;29;20033;-67
2022/07/31 04:15:20;;;;;;;68.75;64.90;;;;;;;25.90;37.96;101550.63;4879653;29;20037;-67
2022/07/31 04:17:45;;;;;;;72.35;68.45;;;;;;;25.89;38.05;101548.19;4879223;29;20607;-68
2022/07/31 04:20:11;;;;;;;69.20;65.60;;;;;;;25.87;38.12;101544.94;4879714;29;20033;-66
2022/07/31 04:22:37;;;;;;;70.43;66.90;;;;;;;25.86;38.52;101544.13;4882571;29;20065;-66
2022/07/31 04:25:04;;;;;;;67.80;64.10;;;;;;;25.85;38.24;101552.75;4882609;29;20065;-67
2022/07/31 04:27:29;;;;;;;66.18;62.58;;;;;;;25.83;38.40;101553.06;4882989;29;20127;-67
2022/07/31 04:29:56;;;;;;;67.75;63.95;;;;;;;25.81;38.33;101549.78;4882410;29;20186;-67
2022/07/31 04:32:21;;;;;;;69.65;66.07;;;;;;;25.79;38.46;101548.50;4882794;29;20033;-66
2022/07/31 04:34:46;;;;;;;66.28;62.63;;;;;;;25.77;38.72;101550.75;4882706;29;20029;-67
2022/07/31 04:37:12;;;;;;;66.70;63.20;;;;;;;25.74;38.54;101549.47;4896932;29;20113;-67
2022/07/31 04:39:37;;;;;;;65.10;61.70;;;;;;;25.73;38.30;101550.63;4882855;29;20382;-67
2022/07/31 04:42:03;;;;;;;69.15;65.35;;;;;;;25.72;38.71;101548.97;4882185;29;20031;-67
2022/07/31 04:44:30;;;;;;;68.20;64.40;;;;;;;25.69;38.44;101558.75;4897338;29;20390;-66
2022/07/31 04:46:59;;;;;;;65.72;62.33;;;;;;;25.68;38.81;101548.03;4881855;29;20062;-67
2022/07/31 04:49:25;;;;;;;66.22;62.60;;;;;;;25.65;38.63;101546.72;4882626;29;20104;-67
2022/07/31 04:51:51;;;;;;;66.28;62.83;;;;;;;25.64;38.77;101549.78;4882086;29;20486;-67
2022/07/31 04:54:17;;;;;;;66.03;62.47;;;;;;;25.62;39.20;101543.78;4882014;29;20033;-67
2022/07/31 04:56:42;;;;;;;67.88;64.50;;;;;;;25.61;39.39;101542.16;4896879;29;20089;-67
2022/07/31 04:59:10;;;;;;;68.30;64.85;;;;;;;25.59;39.40;101534.16;4881946;29;20549;-67
2022/07/31 05:01:36;;;;;;;66.97;63.55;;;;;;;25.57;39.10;101538.41;4882464;29;20040;-67
2022/07/31 05:04:02;;;;;;;66.15;62.65;;;;;;;25.56;38.87;101536.78;4881895;29;20037;-66
2022/07/31 05:06:44;;;;;;;67.20;63.03;;;;;;;25.55;39.16;101532.38;4882350;29;20041;-66
2022/07/31 05:09:12;;;;;;;63.50;60.30;;;;;;;25.52;39.48;101539.38;4881542;29;20041;-67
2022/07/31 05:11:38;;;;;;;65.47;62.17;;;;;;;25.49;39.17;101534.50;4881822;29;20128;-66
2022/07/31 05:14:05;;;;;;;64.38;60.78;;;;;;;25.48;39.20;101541.97;4881686;29;20474;-67
2022/07/31 05:16:31;;;;;;;61.92;58.80;;;;;;;25.46;39.67;101535.97;4881384;29;20055;-67
2022/07/31 05:18:57;;;;;;;66.75;63.13;;;;;;;25.45;39.53;101534.34;4881526;29;20108;-67
2022/07/31 05:21:25;;;;;;;63.22;60.00;;;;;;;25.44;39.89;101538.22;4881347;29;20120;-67
2022/07/31 05:23:51;;;;;;;62.80;59.60;;;;;;;25.42;39.54;101532.19;4882356;29;20096;-67
2022/07/31 05:26:18;;;;;;;64.07;60.97;;;;;;;25.40;39.96;101533.66;4881669;29;20468;-67
2022/07/31 05:28:43;;;;;;;61.80;58.60;;;;;;;25.39;40.15;101529.28;4881890;29;20041;-67
2022/07/31 05:31:09;;;;;;;64.72;61.22;;;;;;;25.37;39.93;101529.59;4881162;29;20033;-68
2022/07/31 05:33:35;;;;;;;62.38;58.97;;;;;;;25.37;40.44;101526.03;4880722;29;20037;-67
2022/07/31 05:36:01;;;;;;;61.13;58.08;;;;;;;25.35;40.06;101534.66;4881328;29;20064;-67
2022/07/31 05:38:27;;;;;;;65.40;62.10;;;;;;;25.34;40.50;101523.91;4879954;29;20430;-67
2022/07/31 05:40:53;;;;;;;61.88;58.67;;;;;;;25.33;40.61;101531.41;4881041;29;20068;-68
2022/07/31 05:43:18;;;;;;;63.10;59.85;;;;;;;25.31;40.48;101530.91;4881383;29;20048;-67
2022/07/31 05:45:45;;;;;;;61.03;57.53;;;;;;;25.30;40.19;101542.28;4881433;29;20069;-66
2022/07/31 05:48:12;;;;;;;61.25;58.25;;;;;;;25.28;40.28;101533.50;4880993;29;20037;-66
2022/07/31 05:50:37;;;;;;;64.20;60.80;;;;;;;25.27;40.77;101524.38;4895725;29;20033;-67
2022/07/31 05:53:02;;;;;;;60.85;57.58;;;;;;;25.25;40.59;101527.47;4881622;29;20057;-66
2022/07/31 05:55:28;;;;;;;64.35;61.25;;;;;;;25.24;40.67;101533.31;4880090;29;20040;-67
2022/07/31 05:57:53;;;;;;;61.80;58.80;;;;;;;25.23;40.33;101529.75;4880899;29;20032;-67
2022/07/31 06:00:19;;;;;;;62.90;59.70;;;;;;;25.22;41.08;101525.38;4881100;29;20039;-67
2022/07/31 06:02:45;;;;;;;60.83;57.50;;;;;;;25.21;40.47;101528.44;4880910;29;20097;-66
2022/07/31 06:05:11;;;;;;;61.10;58.03;;;;;;;25.19;40.93;101527.94;4880999;29;20037;-67
2022/07/31 06:07:36;;;;;;;63.03;59.55;;;;;;;25.18;41.01;101529.09;4880854;29;20057;-67
2022/07/31 06:10:03;;;;;;;61.47;58.22;;;;;;;25.17;40.76;101532.97;4880897;29;20122;-67
2022/07/31 06:12:28;;;;;;;60.28;56.88;;;;;;;25.16;40.87;101523.88;4880642;29;20201;-67
2022/07/31 06:14:53;;;;;;;60.20;57.10;;;;;;;25.15;40.87;101526.94;4879683;29;20535;-67
2022/07/31 06:17:19;;;;;;;63.38;60.17;;;;;;;25.14;41.36;101533.59;4880416;29;20032;-67
2022/07/31 06:19:44;;;;;;;60.25;57.25;;;;;;;25.13;41.52;101523.69;4881079;29;20048;-67
2022/07/31 06:22:10;;;;;;;61.90;58.47;;;;;;;25.12;41.13;101530.34;4880451;29;20477;-68
2022/07/31 06:24:36;;;;;;;62.28;59.08;;;;;;;25.09;41.02;101523.50;4880504;29;20101;-68
2022/07/31 06:27:02;;;;;;;61.30;58.20;;;;;;;25.09;40.97;101519.94;4880637;29;20048;-67
2022/07/31 06:29:27;;;;;;;60.78;57.72;;;;;;;25.08;41.10;101524.66;4880640;29;20454;-67
2022/07/31 06:31:53;;;;;;;63.72;60.50;;;;;;;25.07;41.63;101513.91;4880112;29;20048;-67
2022/07/31 06:34:19;;;;;;;63.42;60.33;;;;;;;25.04;41.12;101510.66;4879976;29;20048;-67
2022/07/31 06:36:44;;;;;;;60.55;57.60;;;;;;;25.04;41.60;101520.91;4880225;29;20061;-67
2022/07/31 06:39:10;;;;;;;60.78;57.78;;;;;;;25.03;41.37;101531.16;4880256;29;20037;-67
2022/07/31 06:41:48;;;;;;;61.22;58.00;;;;;;;25.03;41.59;101530.34;4879995;29;20111;-68
2022/07/31 06:44:15;;;;;;;62.10;58.90;;;;;;;25.00;41.46;101526.28;4880544;29;20049;-68
2022/07/31 06:46:40;;;;;;;61.45;58.35;;;;;;;24.99;41.40;101521.84;4880687;29;20033;-67
2022/07/31 06:49:06;;;;;;;60.38;57.42;;;;;;;24.99;41.76;101524.63;4880058;29;20036;-67
2022/07/31 06:51:32;;;;;;;61.58;58.47;;;;;;;24.99;41.50;101523.81;4880020;29;20059;-67
2022/07/31 06:53:59;;;;;;;60.72;57.53;;;;;;;24.97;41.55;101515.88;4880031;29;20033;-67
2022/07/31 06:56:25;;;;;;;62.83;59.58;;;;;;;24.96;41.72;101516.97;4880615;29;20037;-68
2022/07/31 06:58:50;;;;;;;59.88;56.88;;;;;;;24.96;41.88;101521.69;4879925;29;20100;-67
2022/07/31 07:01:16;;;;;;;64.68;61.47;;;;;;;24.95;41.76;101518.13;4879914;29;20101;-67
2022/07/31 07:03:41;;;;;;;63.70;60.40;;;;;;;24.95;41.72;101525.63;4879874;29;20120;-67
2022/07/31 07:06:06;;;;;;;63.75;60.25;;;;;;;24.94;42.27;101522.00;4879802;29;20113;-66
2022/07/31 07:08:32;;;;;;;63.55;60.05;;;;;;;24.94;41.96;101524.78;4880109;29;20047;-66
2022/07/31 07:10:57;;;;;;;64.45;60.95;;;;;;;24.94;42.59;101523.97;4879984;29;20064;-66
2022/07/31 07:13:24;;;;;;;65.88;61.22;;;;;;;24.93;41.91;101520.41;4879685;29;20045;-68
2022/07/31 07:15:50;;;;;;;64.53;61.00;;;;;;;24.92;42.25;101521.53;4880187;29;20070;-67
2022/07/31 07:18:15;;;;;;;64.47;61.08;;;;;;;24.92;41.68;101509.66;4878447;29;20105;-67
2022/07/31 07:20:41;;;;;;;64.65;60.97;;;;;;;24.91;42.29;101508.84;4879730;29;20116;-68
2022/07/31 07:23:06;;;;;;;65.75;61.33;;;;;;;24.92;42.02;101509.66;4879883;29;20113;-69
2022/07/31 07:25:32;;;;;;;62.72;58.72;;;;;;;24.92;42.26;101509.66;4879540;29;20474;-66
2022/07/31 07:27:57;;;;;;;65.95;62.38;;;;;;;24.91;42.42;101500.56;4893898;29;20043;-67
2022/07/31 07:30:23;;;;;;;65.40;61.72;;;;;;;24.91;42.71;101508.84;4879681;29;20044;-67
2022/07/31 07:32:49;;;;;;;63.10;59.40;;;;;;;24.90;42.45;101504.47;4879845;29;20041;-67
2022/07/31 07:35:15;;;;;;;63.40;59.72;;;;;;;24.90;42.55;101500.88;4879728;29;20040;-67
2022/07/31 07:37:40;;;;;;;60.70;57.42;;;;;;;24.90;42.88;101507.22;4879704;29;20041;-67
2022/07/31 07:40:07;;;;;;;66.00;61.92;;;;;;;24.91;43.30;101510.78;4879617;29;20068;-67
2022/07/31 07:42:33;;;;;;;63.15;59.35;;;;;;;24.89;43.16;101508.34;4879444;29;20034;-68
2022/07/31 07:44:58;;;;;;;65.38;61.40;;;;;;;24.89;42.90;101505.56;4879506;29;20033;-67
2022/07/31 07:47:24;;;;;;;66.50;62.25;;;;;;;24.90;43.63;101495.38;4879441;29;20044;-68
2022/07/31 07:49:49;;;;;;;65.00;61.15;;;;;;;24.90;43.26;101496.16;4879444;29;20041;-67
2022/07/31 07:52:15;;;;;;;65.65;62.05;;;;;;;24.91;43.48;101499.75;4878905;29;20062;-68
2022/07/31 07:54:42;;;;;;;65.13;61.05;;;;;;;24.92;43.46;101493.06;4879696;29;20033;-68
2022/07/31 07:57:08;;;;;;;66.15;62.28;;;;;;;24.92;43.38;101493.06;4882866;29;20120;-66
2022/07/31 07:59:33;;;;;;;63.30;59.05;;;;;;;24.94;43.46;101501.84;4882917;29;20112;-67
2022/07/31 08:01:59;;;;;;;64.28;60.50;;;;;;;24.93;43.49;101494.72;4882977;29;20435;-66
2022/07/31 08:04:25;;;;;;;67.60;63.53;;;;;;;24.93;43.55;101501.06;4883356;29;20107;-66
2022/07/31 08:06:50;;;;;;;64.75;61.20;;;;;;;24.93;43.83;101501.06;4883145;29;20072;-67
2022/07/31 08:09:15;;;;;;;65.72;61.60;;;;;;;24.95;44.26;101504.31;4882787;29;20045;-67
2022/07/31 08:11:41;;;;;;;64.60;60.13;;;;;;;24.95;43.66;101507.06;4881968;29;20393;-67
2022/07/31 08:14:06;;;;;;;62.70;58.65;;;;;;;24.96;43.64;101499.59;4882696;29;20033;-67
2022/07/31 08:16:32;;;;;;;63.97;60.28;;;;;;;24.96;43.69;101500.41;4897241;29;20033;-67
2022/07/31 08:18:57;;;;;;;64.57;60.67;;;;;;;24.97;43.86;101503.97;4882677;29;20099;-68
2022/07/31 08:21:22;;;;;;;65.07;61.40;;;;;;;24.97;44.25;101502.03;4882347;29;20187;-68
2022/07/31 08:23:48;;;;;;;65.05;61.22;;;;;;;24.97;44.10;101502.03;4882934;29;20037;-67
2022/07/31 08:26:14;;;;;;;64.18;60.60;;;;;;;24.99;44.28;101499.75;4896934;29;20386;-68
2022/07/31 08:28:40;;;;;;;62.67;58.88;;;;;;;25.00;44.53;101498.63;4883165;29;20041;-68
2022/07/31 08:31:05;;;;;;;65.45;61.45;;;;;;;24.99;44.08;101502.50;4882512;29;20041;-67
2022/07/31 08:33:31;;;;;;;65.70;61.65;;;;;;;25.00;43.89;101508.88;4882662;29;20037;-67
2022/07/31 08:35:57;;;;;;;66.07;62.25;;;;;;;25.01;44.60;101505.78;4882400;29;20037;-67
2022/07/31 08:38:23;;;;;;;65.40;61.47;;;;;;;25.02;44.10;101495.53;4882151;29;20060;-68
2022/07/31 08:40:49;;;;;;;64.05;60.45;;;;;;;25.02;44.07;101498.28;4882400;29;20040;-67
2022/07/31 08:43:14;;;;;;;62.78;59.38;;;;;;;25.04;44.67;101502.34;4882194;29;20041;-69
2022/07/31 08:45:41;;;;;;;62.83;58.70;;;;;;;25.04;44.21;101504.31;4882230;29;20044;-67
2022/07/31 08:48:08;;;;;;;64.15;60.42;;;;;;;25.05;44.45;101503.19;4881822;29;20541;-67
2022/07/31 08:50:43;;;;;;;62.13;58.80;;;;;;;25.07;44.37;101500.91;4882010;29;20064;-67
2022/07/31 08:53:14;;;;;;;66.35;62.30;;;;;;;25.07;44.33;101497.31;4882173;29;20143;-67
2022/07/31 08:55:42;;;;;;;63.53;60.13;;;;;;;25.08;44.40;101499.78;4882592;29;20116;-67
2022/07/31 08:58:07;;;;;;;61.80;58.05;;;;;;;25.07;44.19;101503.66;4881706;29;20089;-67
2022/07/31 09:00:33;;;;;;;63.70;60.25;;;;;;;25.09;44.36;101503.34;4881895;29;20427;-66
2022/07/31 09:02:59;;;;;;;65.07;61.38;;;;;;;25.10;44.43;101510.50;4882156;29;20148;-67
2022/07/31 09:05:24;;;;;;;66.93;63.13;;;;;;;25.12;44.22;101509.03;4881825;29;20033;-67
2022/07/31 09:07:50;;;;;;;65.43;61.63;;;;;;;25.13;44.55;101504.34;4881669;29;20048;-69
2022/07/31 09:10:19;;;;;;;62.20;58.50;;;;;;;25.14;44.25;101509.53;4896124;29;20140;-67
2022/07/31 09:12:45;;;;;;;64.75;61.40;;;;;;;25.15;44.46;101499.28;4881736;29;20097;-67
2022/07/31 09:15:26;;;;;;;62.25;58.95;;;;;;;25.15;44.53;101502.88;4881619;29;20033;-68
2022/07/31 09:17:53;;;;;;;61.67;58.38;;;;;;;25.16;44.21;101501.78;4880616;29;20030;-69
2022/07/31 09:20:20;;;;;;;64.05;60.08;;;;;;;25.18;44.93;101490.41;4881798;29;20485;-68
2022/07/31 09:22:47;;;;;;;62.58;58.88;;;;;;;25.19;44.84;101492.81;4881293;29;20499;-68
2022/07/31 09:25:17;;;;;;;61.85;58.60;;;;;;;25.21;44.48;101489.75;4881303;29;20037;-68
2022/07/31 09:27:43;;;;;;;65.68;61.80;;;;;;;25.22;44.46;101488.59;4882043;29;20097;-67
2022/07/31 09:30:09;;;;;;;61.58;58.33;;;;;;;25.23;44.23;101488.28;4881247;29;20041;-67
2022/07/31 09:32:34;;;;;;;65.50;61.60;;;;;;;25.26;44.76;101493.16;4881358;29;20030;-67
2022/07/31 09:35:08;;;;;;;65.70;62.13;;;;;;;25.26;44.28;101478.53;4881395;29;20033;-67
2022/07/31 09:37:34;;;;;;;65.97;62.30;;;;;;;25.28;44.99;101478.22;4879900;29;20040;-68
2022/07/31 09:40:00;;;;;;;63.45;60.28;;;;;;;25.28;45.04;101490.06;4881027;29;20056;-68
2022/07/31 09:42:35;;;;;;;65.53;62.20;;;;;;;25.32;44.66;101487.47;4881073;29;20378;-68
2022/07/31 09:45:02;;;;;;;61.22;57.97;;;;;;;25.32;44.97;101488.28;4881206;29;20110;-67
2022/07/31 09:47:29;;;;;;;63.35;59.88;;;;;;;25.34;44.90;101488.75;4881091;29;20044;-68
2022/07/31 09:49:57;;;;;;;63.75;60.20;;;;;;;25.37;44.99;101487.31;4880229;29;20114;-67
2022/07/31 09:52:24;;;;;;;62.20;58.88;;;;;;;25.38;44.97;101491.72;4881595;29;20211;-68
2022/07/31 09:55:05;;;;;;;64.18;61.10;;;;;;;25.40;44.58;101486.66;4881020;29;20401;-69
2022/07/31 09:57:30;;;;;;;60.78;57.67;;;;;;;25.40;44.43;101473.66;4880841;29;20041;-68
2022/07/31 09:59:56;;;;;;;61.85;58.65;;;;;;;25.44;45.03;101480.16;4881249;29;20344;-67
2022/07/31 10:02:25;;;;;;;61.90;58.70;;;;;;;25.44;44.98;101477.38;4881107;29;20068;-68
2022/07/31 10:04:52;;;;;;;62.92;59.63;;;;;;;25.46;45.29;101483.41;4880709;29;20498;-67
2022/07/31 10:07:18;;;;;;;58.37;55.53;;;;;;;25.49;45.20;101476.41;4895170;29;20044;-66
2022/07/31 10:09:44;;;;;;;64.38;60.83;;;;;;;25.51;45.02;101476.09;4879549;29;20526;-67
2022/07/31 10:12:13;;;;;;;62.33;58.60;;;;;;;25.53;45.34;101480.16;4881462;29;20132;-68
2022/07/31 10:14:40;;;;;;;;;;;;;;;25.54;44.36;101478.19;4881046;29;20156;-66
2022/07/31 10:17:06;;;;;;;62.80;59.35;;;;;;;25.55;44.60;101472.34;4880499;29;19964;-67
2022/07/31 10:19:37;;;;;;;61.45;58.42;;;;;;;25.57;44.40;101477.53;4880068;29;20029;-67
2022/07/31 10:22:03;;;;;;;59.85;56.38;;;;;;;25.60;44.98;101479.66;4880833;29;20037;-67
2022/07/31 10:24:32;;;;;;;59.58;56.33;;;;;;;25.61;44.87;101471.03;4880885;29;20463;-67
2022/07/31 10:26:58;;;;;;;60.50;57.15;;;;;;;25.63;45.32;101474.28;4880372;29;20064;-67
2022/07/31 10:29:25;;;;;;;62.63;59.33;;;;;;;25.65;45.55;101476.72;4880577;29;20033;-68
2022/07/31 10:31:51;;;;;;;63.38;59.97;;;;;;;25.67;45.84;101474.44;4880325;29;20044;-68
2022/07/31 10:34:17;;;;;;;64.43;61.22;;;;;;;25.70;45.78;101468.25;4880553;29;20040;-67
2022/07/31 10:36:45;;;;;;;64.68;61.28;;;;;;;25.73;45.92;101464.84;4880064;29;20033;-67
2022/07/31 10:39:27;;;;;;;63.95;60.65;;;;;;;25.75;45.68;101473.59;4880122;29;20036;-67
2022/07/31 10:42:14;;;;;;;63.72;60.53;;;;;;;25.79;45.29;101477.34;4880326;29;20032;-67
2022/07/31 10:44:57;;;;;;;61.58;58.22;;;;;;;25.80;45.61;101475.38;4894735;29;20044;-67
2022/07/31 10:47:22;;;;;;;65.90;62.50;;;;;;;25.81;45.54;101472.31;4880068;29;20025;-67
2022/07/31 10:49:48;;;;;;;64.28;60.78;;;;;;;25.83;45.41;101472.78;4879992;29;20644;-67
2022/07/31 10:52:26;;;;;;;63.45;60.45;;;;;;;25.86;45.19;101472.16;4879749;29;20558;-66
2022/07/31 10:54:53;;;;;;;64.43;60.75;;;;;;;25.88;44.92;101478.19;4880033;29;20084;-67
2022/07/31 10:57:30;;;;;;;65.07;61.58;;;;;;;25.89;45.59;101471.50;4880132;29;20033;-66
2022/07/31 10:59:56;;;;;;;65.85;62.45;;;;;;;25.94;45.37;101469.72;4879939;29;20374;-67
2022/07/31 11:02:32;;;;;;;64.22;60.38;;;;;;;25.98;45.61;101459.59;4878745;29;20032;-68
2022/07/31 11:05:21;;;;;;;63.42;60.33;;;;;;;26.00;44.92;101462.84;4880438;29;20029;-67
2022/07/31 11:07:58;;;;;;;63.97;60.58;;;;;;;26.02;45.11;101457.78;4879760;29;20036;-68